createdAt,value
2022-10-09T00:00:23.628Z,2.72
2022-10-09T00:01:29.289Z,3.17
2022-10-09T00:02:32.130Z,2.40
2022-10-09T00:03:36.546Z,2.90
2022-10-09T00:04:39.460Z,3.55
2022-10-09T00:05:42.219Z,2.90
2022-10-09T00:06:45.032Z,3.33
2022-10-09T00:07:47.749Z,2.83
2022-10-09T00:08:50.909Z,3.30
2022-10-09T00:09:53.661Z,3.50
2022-10-09T00:10:56.501Z,3.30
2022-10-09T00:11:59.130Z,3.03
2022-10-09T00:13:01.901Z,2.97
2022-10-09T00:14:05.246Z,2.67
2022-10-09T00:15:08.292Z,3.75
2022-10-09T00:16:14.196Z,3.37
2022-10-09T00:17:17.024Z,3.17
2022-10-09T00:18:19.778Z,3.15
2022-10-09T00:19:22.490Z,3.22
2022-10-09T00:20:25.120Z,2.75
2022-10-09T00:21:30.957Z,3.67
2022-10-09T00:22:33.716Z,3.20
2022-10-09T00:23:36.249Z,2.85
2022-10-09T00:24:38.991Z,3.12
2022-10-09T00:25:52.324Z,3.28
2022-10-09T00:26:55.074Z,3.05
2022-10-09T00:27:58.722Z,3.67
2022-10-09T00:29:01.545Z,2.78
2022-10-09T00:30:05.314Z,3.22
2022-10-09T00:31:10.398Z,3.25
2022-10-09T00:32:13.126Z,3.40
2022-10-09T00:33:15.827Z,3.90
2022-10-09T00:34:18.496Z,2.72
2022-10-09T00:35:21.666Z,3.08
2022-10-09T00:36:26.068Z,3.40
2022-10-09T00:37:28.966Z,3.62
2022-10-09T00:38:31.841Z,2.92
2022-10-09T00:39:34.579Z,3.00
2022-10-09T00:40:38.767Z,3.83
2022-10-09T00:41:41.538Z,4.10
2022-10-09T00:42:45.898Z,3.47
2022-10-09T00:43:52.577Z,3.30
2022-10-09T00:44:58.937Z,4.10
2022-10-09T00:46:01.911Z,3.05
2022-10-09T00:47:04.618Z,3.20
2022-10-09T00:48:10.242Z,4.28
2022-10-09T00:49:25.813Z,4.12
2022-10-09T00:50:50.343Z,4.37
2022-10-09T00:51:55.063Z,4.15
2022-10-09T00:53:00.209Z,3.70
2022-10-09T00:54:07.659Z,4.55
2022-10-09T00:55:12.966Z,4.53
2022-10-09T00:56:15.988Z,3.35
2022-10-09T00:57:18.952Z,3.47
2022-10-09T00:58:22.966Z,4.18
2022-10-09T00:59:26.316Z,3.25
2022-10-09T01:00:29.268Z,3.53
2022-10-09T01:01:32.159Z,4.62
2022-10-09T01:02:35.570Z,3.90
2022-10-09T01:03:40.578Z,3.58
2022-10-09T01:04:43.259Z,3.75
2022-10-09T01:06:14.145Z,3.78
2022-10-09T01:07:28.484Z,3.12
2022-10-09T01:09:05.005Z,3.80
2022-10-09T01:10:13.768Z,3.62
2022-10-09T01:11:21.984Z,4.25
2022-10-09T01:12:48.831Z,4.30
2022-10-09T01:14:19.816Z,4.47
2022-10-09T01:15:55.014Z,3.70
2022-10-09T01:17:10.406Z,3.80
2022-10-09T01:18:20.307Z,4.07
2022-10-09T01:19:54.875Z,3.67
2022-10-09T01:21:20.144Z,3.65
2022-10-09T01:22:25.519Z,4.07
2022-10-09T01:23:43.367Z,4.10
2022-10-09T01:25:15.224Z,3.67
2022-10-09T01:26:43.598Z,3.50
2022-10-09T01:27:46.304Z,3.95
2022-10-09T01:28:57.555Z,2.97
2022-10-09T01:30:05.083Z,4.05
2022-10-09T01:31:09.965Z,3.65
2022-10-09T01:32:17.747Z,3.80
2022-10-09T01:33:21.635Z,4.53
2022-10-09T01:34:25.163Z,3.70
2022-10-09T01:35:29.544Z,4.28
2022-10-09T01:36:33.253Z,3.70
2022-10-09T01:37:38.787Z,3.95
2022-10-09T01:38:42.851Z,4.05
2022-10-09T01:39:46.881Z,4.43
2022-10-09T01:40:52.607Z,3.45
2022-10-09T01:41:56.412Z,4.82
2022-10-09T01:42:59.749Z,3.95
2022-10-09T01:44:02.363Z,3.80
2022-10-09T01:45:05.333Z,3.83
2022-10-09T01:46:20.829Z,3.33
2022-10-09T01:47:24.106Z,3.50
2022-10-09T01:48:27.822Z,3.95
2022-10-09T01:49:41.986Z,4.45
2022-10-09T01:50:46.574Z,4.22
2022-10-09T01:51:55.899Z,3.45
2022-10-09T01:53:08.206Z,3.53
2022-10-09T01:54:14.923Z,3.65
2022-10-09T01:55:45.064Z,3.58
2022-10-09T01:56:50.073Z,3.57
2022-10-09T01:58:21.288Z,4.45
2022-10-09T01:59:26.897Z,3.42
2022-10-09T02:00:34.666Z,3.60
2022-10-09T02:01:39.817Z,3.67
2022-10-09T02:02:43.835Z,3.67
2022-10-09T02:03:50.216Z,3.95
2022-10-09T02:04:54.050Z,3.67
2022-10-09T02:05:58.051Z,3.72
2022-10-09T02:07:00.811Z,4.15
2022-10-09T02:08:03.846Z,4.00
2022-10-09T02:09:14.298Z,3.70
2022-10-09T02:10:19.013Z,4.18
2022-10-09T02:11:22.608Z,3.53
2022-10-09T02:12:28.207Z,3.28
2022-10-09T02:13:33.814Z,4.18
2022-10-09T02:14:37.020Z,3.83
2022-10-09T02:15:50.086Z,3.75
2022-10-09T02:17:03.212Z,3.65
2022-10-09T02:18:11.410Z,3.47
2022-10-09T02:19:23.702Z,3.67
2022-10-09T02:20:31.289Z,3.47
2022-10-09T02:21:46.763Z,3.42
2022-10-09T02:22:49.970Z,3.28
2022-10-09T02:23:55.130Z,3.03
2022-10-09T02:25:01.500Z,3.72
2022-10-09T02:26:04.812Z,3.08
2022-10-09T02:27:08.849Z,3.60
2022-10-09T02:28:11.855Z,3.70
2022-10-09T02:29:15.937Z,2.97
2022-10-09T02:30:21.132Z,3.05
2022-10-09T02:31:32.374Z,3.37
2022-10-09T02:32:35.731Z,3.53
2022-10-09T02:33:38.451Z,3.62
2022-10-09T02:34:41.220Z,3.40
2022-10-09T02:35:44.218Z,3.33
2022-10-09T02:36:47.815Z,3.87
2022-10-09T02:37:50.460Z,3.90
2022-10-09T02:38:55.055Z,4.10
2022-10-09T02:39:57.731Z,3.25
2022-10-09T02:41:01.252Z,4.22
2022-10-09T02:42:04.449Z,2.95
2022-10-09T02:43:07.265Z,3.50
2022-10-09T02:44:10.572Z,3.42
2022-10-09T02:45:13.284Z,3.87
2022-10-09T02:46:16.062Z,3.85
2022-10-09T02:47:19.131Z,3.40
2022-10-09T02:48:21.971Z,3.90
2022-10-09T02:49:24.750Z,3.35
2022-10-09T02:50:27.414Z,4.20
2022-10-09T02:51:30.534Z,2.97
2022-10-09T02:52:33.133Z,3.60
2022-10-09T02:53:36.618Z,3.30
2022-10-09T02:54:39.352Z,3.03
2022-10-09T02:55:42.048Z,3.10
2022-10-09T02:56:44.704Z,3.47
2022-10-09T02:57:47.339Z,3.28
2022-10-09T02:58:50.263Z,3.60
2022-10-09T02:59:52.851Z,3.00
2022-10-09T03:00:55.529Z,3.35
2022-10-09T03:01:58.308Z,3.25
2022-10-09T03:03:01.095Z,3.17
2022-10-09T03:04:04.460Z,3.12
2022-10-09T03:05:07.761Z,3.25
2022-10-09T03:06:13.945Z,2.70
2022-10-09T03:07:16.576Z,3.12
2022-10-09T03:08:21.232Z,3.25
2022-10-09T03:09:24.013Z,3.30
2022-10-09T03:10:26.875Z,2.70
2022-10-09T03:11:29.489Z,2.97
2022-10-09T03:12:32.118Z,3.35
2022-10-09T03:13:34.920Z,3.42
2022-10-09T03:14:37.648Z,3.10
2022-10-09T03:15:40.544Z,3.35
2022-10-09T03:16:43.618Z,3.22
2022-10-09T03:17:46.443Z,3.10
2022-10-09T03:18:50.184Z,2.55
2022-10-09T03:19:53.964Z,3.08
2022-10-09T03:20:56.648Z,3.50
2022-10-09T03:21:59.333Z,3.65
2022-10-09T03:23:01.983Z,3.00
2022-10-09T03:24:04.741Z,2.90
2022-10-09T03:25:08.053Z,3.35
2022-10-09T03:26:14.476Z,3.70
2022-10-09T03:27:17.105Z,3.50
2022-10-09T03:28:19.798Z,3.80
2022-10-09T03:29:22.505Z,3.92
2022-10-09T03:30:25.519Z,3.05
2022-10-09T03:31:50.690Z,3.10
2022-10-09T03:32:51.372Z,3.90
2022-10-09T03:33:54.258Z,3.10
2022-10-09T03:34:57.077Z,4.07
2022-10-09T03:36:00.134Z,3.53
2022-10-09T03:37:02.836Z,4.07
2022-10-09T03:38:05.516Z,3.40
2022-10-09T03:39:09.222Z,3.90
2022-10-09T03:40:11.903Z,3.67
2022-10-09T03:41:14.606Z,3.17
2022-10-09T03:42:17.333Z,3.78
2022-10-09T03:43:20.241Z,4.00
2022-10-09T03:44:22.862Z,3.65
2022-10-09T03:45:25.645Z,3.78
2022-10-09T03:46:28.404Z,3.42
2022-10-09T03:47:31.934Z,3.58
2022-10-09T03:48:34.958Z,3.45
2022-10-09T03:49:37.572Z,3.20
2022-10-09T03:50:41.813Z,3.30
2022-10-09T03:51:44.459Z,3.08
2022-10-09T03:52:47.337Z,2.92
2022-10-09T03:53:50.275Z,3.65
2022-10-09T03:54:53.064Z,3.62
2022-10-09T03:55:55.740Z,3.72
2022-10-09T03:56:58.508Z,3.40
2022-10-09T03:58:01.104Z,3.87
2022-10-09T03:59:05.887Z,3.83
2022-10-09T04:00:09.802Z,3.17
2022-10-09T04:01:12.441Z,2.53
2022-10-09T04:02:15.059Z,3.05
2022-10-09T04:03:17.848Z,3.30
2022-10-09T04:04:20.512Z,3.55
2022-10-09T04:05:23.791Z,3.40
2022-10-09T04:06:26.489Z,3.42
2022-10-09T04:07:30.344Z,3.40
2022-10-09T04:08:41.954Z,3.37
2022-10-09T04:09:44.657Z,3.83
2022-10-09T04:10:47.347Z,3.05
2022-10-09T04:11:50.059Z,3.90
2022-10-09T04:12:52.865Z,3.95
2022-10-09T04:13:55.565Z,3.37
2022-10-09T04:14:58.171Z,3.25
2022-10-09T04:16:00.909Z,3.78
2022-10-09T04:17:03.577Z,3.75
2022-10-09T04:18:08.054Z,4.12
2022-10-09T04:19:12.247Z,4.47
2022-10-09T04:20:15.168Z,3.90
2022-10-09T04:21:17.844Z,3.25
2022-10-09T04:22:20.823Z,4.45
2022-10-09T04:23:26.513Z,3.70
2022-10-09T04:24:29.481Z,3.72
2022-10-09T04:25:32.223Z,4.47
2022-10-09T04:26:35.732Z,3.90
2022-10-09T04:27:38.442Z,3.50
2022-10-09T04:28:45.102Z,3.85
2022-10-09T04:29:47.743Z,3.22
2022-10-09T04:30:50.669Z,3.62
2022-10-09T04:31:53.333Z,3.87
2022-10-09T04:32:55.935Z,3.72
2022-10-09T04:33:58.570Z,3.33
2022-10-09T04:35:01.351Z,3.55
2022-10-09T04:36:04.351Z,4.22
2022-10-09T04:37:06.942Z,3.55
2022-10-09T04:38:09.845Z,4.40
2022-10-09T04:39:12.830Z,4.28
2022-10-09T04:40:15.956Z,3.65
2022-10-09T04:41:18.776Z,3.40
2022-10-09T04:42:21.468Z,3.45
2022-10-09T04:43:24.443Z,4.07
2022-10-09T04:44:27.143Z,4.45
2022-10-09T04:45:29.796Z,3.55
2022-10-09T04:46:32.460Z,4.20
2022-10-09T04:47:35.543Z,3.30
2022-10-09T04:48:43.681Z,3.37
2022-10-09T04:49:46.451Z,3.58
2022-10-09T04:50:49.260Z,4.05
2022-10-09T04:51:51.965Z,3.47
2022-10-09T04:52:54.591Z,3.37
2022-10-09T04:54:00.632Z,3.30
2022-10-09T04:55:04.090Z,3.33
2022-10-09T04:56:09.488Z,2.95
2022-10-09T04:57:12.909Z,3.92
2022-10-09T04:58:15.586Z,3.42
2022-10-09T04:59:18.204Z,3.72
2022-10-09T05:00:20.988Z,4.05
2022-10-09T05:01:26.448Z,4.00
2022-10-09T05:02:29.185Z,4.20
2022-10-09T05:03:31.902Z,3.70
2022-10-09T05:04:34.665Z,4.07
2022-10-09T05:05:37.338Z,5.45
2022-10-09T05:06:40.072Z,4.55
2022-10-09T05:07:42.700Z,4.32
2022-10-09T05:08:46.948Z,4.18
2022-10-09T05:09:49.595Z,3.90
2022-10-09T05:10:52.197Z,4.18
2022-10-09T05:11:54.839Z,3.90
2022-10-09T05:12:57.396Z,4.07
2022-10-09T05:14:05.355Z,4.53
2022-10-09T05:15:08.309Z,3.92
2022-10-09T05:16:16.855Z,4.32
2022-10-09T05:17:23.001Z,4.03
2022-10-09T05:18:26.180Z,4.15
2022-10-09T05:19:29.262Z,3.95
2022-10-09T05:20:31.860Z,4.53
2022-10-09T05:21:35.694Z,5.18
2022-10-09T05:22:38.248Z,4.32
2022-10-09T05:23:40.970Z,4.25
2022-10-09T05:24:43.578Z,3.92
2022-10-09T05:25:58.373Z,3.92
2022-10-09T05:27:01.052Z,3.92
2022-10-09T05:28:04.993Z,4.10
2022-10-09T05:29:07.887Z,4.50
2022-10-09T05:30:11.240Z,3.87
2022-10-09T05:31:49.129Z,4.50
2022-10-09T05:32:52.203Z,4.35
2022-10-09T05:33:56.448Z,3.92
2022-10-09T05:34:59.053Z,4.07
2022-10-09T05:36:04.207Z,3.92
2022-10-09T05:37:06.784Z,3.87
2022-10-09T05:38:09.387Z,4.03
2022-10-09T05:39:13.395Z,4.15
2022-10-09T05:40:16.187Z,3.90
2022-10-09T05:41:20.256Z,3.65
2022-10-09T05:42:22.942Z,4.30
2022-10-09T05:43:30.814Z,5.05
2022-10-09T05:44:33.521Z,3.87
2022-10-09T05:45:36.133Z,3.58
2022-10-09T05:46:39.028Z,3.50
2022-10-09T05:47:41.655Z,4.15
2022-10-09T05:48:46.796Z,4.15
2022-10-09T05:49:49.361Z,4.53
2022-10-09T05:50:52.161Z,4.07
2022-10-09T05:51:56.454Z,3.72
2022-10-09T05:52:59.036Z,4.25
2022-10-09T05:54:04.652Z,3.80
2022-10-09T05:55:07.650Z,4.40
2022-10-09T05:56:27.291Z,3.85
2022-10-09T05:57:29.972Z,3.72
2022-10-09T05:58:32.617Z,4.62
2022-10-09T05:59:35.570Z,4.22
2022-10-09T06:00:38.261Z,4.20
2022-10-09T06:01:42.890Z,4.57
2022-10-09T06:02:45.801Z,4.28
2022-10-09T06:03:51.031Z,4.30
2022-10-09T06:04:53.573Z,3.45
2022-10-09T06:06:03.915Z,4.75
2022-10-09T06:07:06.625Z,4.15
2022-10-09T06:08:09.299Z,3.53
2022-10-09T06:09:12.235Z,4.10
2022-10-09T06:10:14.956Z,4.25
2022-10-09T06:11:21.035Z,4.55
2022-10-09T06:12:23.699Z,3.75
2022-10-09T06:13:26.803Z,3.80
2022-10-09T06:14:30.219Z,4.25
2022-10-09T06:15:32.907Z,4.18
2022-10-09T06:16:38.306Z,4.37
2022-10-09T06:17:41.129Z,4.28
2022-10-09T06:18:49.368Z,3.50
2022-10-09T06:19:52.677Z,3.80
2022-10-09T06:20:56.539Z,3.10
2022-10-09T06:21:59.314Z,3.33
2022-10-09T06:23:01.906Z,3.75
2022-10-09T06:24:06.305Z,3.65
2022-10-09T06:25:09.599Z,3.65
2022-10-09T06:26:14.015Z,3.75
2022-10-09T06:27:16.680Z,3.17
2022-10-09T06:28:20.032Z,3.25
2022-10-09T06:29:22.719Z,3.65
2022-10-09T06:30:25.475Z,3.45
2022-10-09T06:31:31.268Z,2.87
2022-10-09T06:32:33.894Z,3.45
2022-10-09T06:33:39.946Z,2.83
2022-10-09T06:34:42.649Z,3.70
2022-10-09T06:35:45.310Z,3.28
2022-10-09T06:36:48.533Z,3.03
2022-10-09T06:37:51.190Z,3.75
2022-10-09T06:38:54.448Z,3.53
2022-10-09T06:39:57.141Z,3.65
2022-10-09T06:41:04.535Z,2.78
2022-10-09T06:42:07.221Z,2.65
2022-10-09T06:43:09.736Z,2.95
2022-10-09T06:44:16.849Z,3.10
2022-10-09T06:45:19.600Z,3.33
2022-10-09T06:46:25.932Z,3.12
2022-10-09T06:47:28.711Z,3.05
2022-10-09T06:48:33.014Z,2.47
2022-10-09T06:49:35.724Z,2.75
2022-10-09T06:50:38.392Z,2.83
2022-10-09T06:51:41.200Z,3.08
2022-10-09T06:52:43.939Z,2.47
2022-10-09T06:53:50.340Z,2.87
2022-10-09T06:54:52.892Z,3.20
2022-10-09T06:55:58.720Z,2.67
2022-10-09T06:57:01.414Z,2.60
2022-10-09T06:58:04.161Z,2.92
2022-10-09T06:59:07.743Z,2.55
2022-10-09T07:00:11.002Z,2.25
2022-10-09T07:01:16.661Z,2.72
2022-10-09T07:02:19.411Z,2.17
2022-10-09T07:03:22.225Z,2.87
2022-10-09T07:04:25.025Z,3.08
2022-10-09T07:05:27.607Z,2.50
2022-10-09T07:06:32.244Z,3.45
2022-10-09T07:07:34.875Z,2.33
2022-10-09T07:08:40.819Z,3.35
2022-10-09T07:09:43.504Z,2.67
2022-10-09T07:10:46.170Z,2.72
2022-10-09T07:11:49.491Z,2.22
2022-10-09T07:12:52.529Z,2.40
2022-10-09T07:13:57.800Z,2.55
2022-10-09T07:15:00.585Z,2.33
2022-10-09T07:16:05.022Z,2.42
2022-10-09T07:17:07.938Z,2.60
2022-10-09T07:18:10.681Z,2.55
2022-10-09T07:19:14.877Z,2.30
2022-10-09T07:20:17.551Z,2.62
2022-10-09T07:21:20.263Z,2.70
2022-10-09T07:22:26.880Z,2.17
2022-10-09T07:23:31.546Z,2.20
2022-10-09T07:24:34.146Z,2.40
2022-10-09T07:25:39.789Z,2.28
2022-10-09T07:26:45.472Z,2.95
2022-10-09T07:27:48.119Z,2.30
2022-10-09T07:28:51.807Z,1.92
2022-10-09T07:29:54.437Z,2.08
2022-10-09T07:30:57.243Z,2.58
2022-10-09T07:31:59.996Z,2.33
2022-10-09T07:33:03.238Z,2.37
2022-10-09T07:34:09.073Z,2.80
2022-10-09T07:35:11.767Z,2.30
2022-10-09T07:36:14.667Z,1.92
2022-10-09T07:37:17.463Z,2.67
2022-10-09T07:38:22.975Z,2.60
2022-10-09T07:39:26.000Z,1.98
2022-10-09T07:40:28.804Z,2.08
2022-10-09T07:41:31.903Z,2.15
2022-10-09T07:42:34.630Z,2.40
2022-10-09T07:43:39.030Z,2.20
2022-10-09T07:44:41.642Z,2.72
2022-10-09T07:45:44.467Z,2.17
2022-10-09T07:46:50.590Z,2.20
2022-10-09T07:47:53.204Z,2.03
2022-10-09T07:48:55.911Z,2.33
2022-10-09T07:49:58.646Z,2.10
2022-10-09T07:51:10.979Z,2.30
2022-10-09T07:52:14.086Z,2.87
2022-10-09T07:53:16.756Z,2.08
2022-10-09T07:54:19.822Z,2.08
2022-10-09T07:55:22.605Z,2.28
2022-10-09T07:56:29.269Z,2.03
2022-10-09T07:57:32.385Z,1.98
2022-10-09T07:58:35.727Z,2.12
2022-10-09T07:59:38.413Z,2.30
2022-10-09T08:00:41.519Z,1.92
2022-10-09T08:01:44.291Z,1.98
2022-10-09T08:02:47.292Z,1.60
2022-10-09T08:03:50.684Z,2.17
2022-10-09T08:04:53.329Z,1.98
2022-10-09T08:05:56.355Z,2.95
2022-10-09T08:07:00.105Z,1.98
2022-10-09T08:08:04.004Z,2.00
2022-10-09T08:09:08.253Z,2.15
2022-10-09T08:10:11.003Z,2.37
2022-10-09T08:11:16.051Z,1.83
2022-10-09T08:12:18.712Z,2.10
2022-10-09T08:13:21.394Z,2.00
2022-10-09T08:14:24.224Z,2.47
2022-10-09T08:15:27.043Z,2.03
2022-10-09T08:16:31.972Z,2.20
2022-10-09T08:17:34.795Z,1.90
2022-10-09T08:18:38.154Z,2.12
2022-10-09T08:19:40.806Z,1.80
2022-10-09T08:20:43.823Z,1.83
2022-10-09T08:21:46.597Z,1.80
2022-10-09T08:22:49.297Z,2.05
2022-10-09T08:23:56.986Z,2.00
2022-10-09T08:25:00.016Z,2.28
2022-10-09T08:26:03.147Z,1.83
2022-10-09T08:27:06.655Z,2.45
2022-10-09T08:28:09.347Z,1.90
2022-10-09T08:29:16.170Z,1.95
2022-10-09T08:30:18.976Z,2.03
2022-10-09T08:31:22.973Z,1.55
2022-10-09T08:32:25.544Z,2.17
2022-10-09T08:33:28.309Z,2.60
2022-10-09T08:34:31.039Z,2.12
2022-10-09T08:35:34.689Z,1.90
2022-10-09T08:36:37.423Z,1.95
2022-10-09T08:37:40.305Z,1.50
2022-10-09T08:38:48.168Z,2.55
2022-10-09T08:39:51.150Z,1.90
2022-10-09T08:41:03.584Z,1.70
2022-10-09T08:42:06.548Z,1.83
2022-10-09T08:43:15.780Z,1.77
2022-10-09T08:44:40.850Z,1.87
2022-10-09T08:45:45.686Z,1.98
2022-10-09T08:47:22.211Z,2.10
2022-10-09T08:48:29.911Z,1.50
2022-10-09T08:50:04.198Z,1.60
2022-10-09T08:51:10.576Z,1.70
2022-10-09T08:52:24.596Z,1.60
2022-10-09T08:53:38.975Z,1.83
2022-10-09T08:54:41.696Z,1.77
2022-10-09T08:55:52.605Z,1.80
2022-10-09T08:56:55.403Z,1.62
2022-10-09T08:58:04.554Z,1.85
2022-10-09T08:59:11.167Z,1.70
2022-10-09T09:00:19.867Z,2.00
2022-10-09T09:01:26.467Z,1.80
2022-10-09T09:02:49.950Z,2.10
2022-10-09T09:04:25.605Z,2.00
2022-10-09T09:05:55.230Z,1.73
2022-10-09T09:07:07.078Z,2.00
2022-10-09T09:08:09.723Z,1.98
2022-10-09T09:09:18.798Z,2.00
2022-10-09T09:10:37.817Z,1.90
2022-10-09T09:12:00.454Z,1.90
2022-10-09T09:13:41.611Z,2.50
2022-10-09T09:15:04.296Z,2.22
2022-10-09T09:16:19.862Z,1.67
2022-10-09T09:17:45.626Z,2.10
2022-10-09T09:19:03.215Z,2.12
2022-10-09T09:20:24.052Z,1.85
2022-10-09T09:21:47.704Z,2.45
2022-10-09T09:22:51.070Z,2.05
2022-10-09T09:23:53.892Z,2.17
2022-10-09T09:24:58.692Z,2.03
2022-10-09T09:26:02.002Z,2.35
2022-10-09T09:27:21.347Z,2.12
2022-10-09T09:28:28.765Z,2.17
2022-10-09T09:29:39.571Z,2.30
2022-10-09T09:30:48.891Z,2.00
2022-10-09T09:31:59.562Z,2.00
2022-10-09T09:33:12.414Z,2.50
2022-10-09T09:34:21.290Z,2.10
2022-10-09T09:35:30.044Z,1.98
2022-10-09T09:36:50.305Z,2.03
2022-10-09T09:37:54.344Z,2.45
2022-10-09T09:40:37.996Z,2.30
2022-10-09T09:41:43.292Z,2.05
2022-10-09T09:42:47.159Z,1.75
2022-10-09T09:43:49.976Z,1.87
2022-10-09T09:44:58.330Z,2.25
2022-10-09T09:46:02.001Z,1.95
2022-10-09T09:47:04.677Z,2.45
2022-10-09T09:48:15.486Z,2.40
2022-10-09T09:49:21.574Z,2.42
2022-10-09T09:50:53.022Z,1.95
2022-10-09T09:52:02.589Z,2.37
2022-10-09T09:53:09.135Z,2.30
2022-10-09T09:54:27.974Z,2.45
2022-10-09T09:55:33.054Z,2.28
2022-10-09T09:57:06.954Z,2.35
2022-10-09T09:58:07.122Z,2.53
2022-10-09T09:59:33.346Z,2.40
2022-10-09T10:00:36.181Z,2.20
2022-10-09T10:01:38.962Z,2.25
2022-10-09T10:02:41.705Z,2.58
2022-10-09T10:03:50.201Z,2.53
2022-10-09T10:05:02.451Z,2.10
2022-10-09T10:06:05.410Z,2.42
2022-10-09T10:07:08.055Z,2.53
2022-10-09T10:08:20.865Z,2.10
2022-10-09T10:09:23.560Z,2.62
2022-10-09T10:10:27.784Z,2.20
2022-10-09T10:11:33.339Z,2.25
2022-10-09T10:12:45.232Z,2.20
2022-10-09T10:13:49.586Z,2.50
2022-10-09T10:14:52.326Z,2.22
2022-10-09T10:15:57.580Z,2.42
2022-10-09T10:17:02.502Z,1.90
2022-10-09T10:18:14.942Z,2.33
2022-10-09T10:19:27.092Z,1.90
2022-10-09T10:20:32.445Z,2.33
2022-10-09T10:21:47.383Z,2.17
2022-10-09T10:22:55.919Z,2.33
2022-10-09T10:24:10.934Z,2.20
2022-10-09T10:25:18.810Z,2.15
2022-10-09T10:27:09.749Z,1.92
2022-10-09T10:28:18.818Z,1.90
2022-10-09T10:29:29.539Z,1.90
2022-10-09T10:30:35.602Z,2.20
2022-10-09T10:31:53.009Z,2.75
2022-10-09T10:33:14.542Z,2.30
2022-10-09T10:34:45.885Z,1.98
2022-10-09T10:35:55.521Z,2.33
2022-10-09T10:37:13.911Z,2.00
2022-10-09T10:38:45.577Z,2.22
2022-10-09T10:39:58.656Z,1.90
2022-10-09T10:41:26.550Z,2.22
2022-10-09T10:42:58.678Z,2.20
2022-10-09T10:44:15.923Z,2.28
2022-10-09T10:45:35.982Z,2.08
2022-10-09T10:46:49.035Z,2.17
2022-10-09T10:47:55.636Z,2.20
2022-10-09T10:49:00.358Z,2.05
2022-10-09T10:50:03.013Z,1.90
2022-10-09T10:51:34.744Z,2.20
2022-10-09T10:53:03.931Z,2.03
2022-10-09T10:54:15.566Z,2.08
2022-10-09T10:55:52.164Z,2.15
2022-10-09T10:57:16.417Z,1.75
2022-10-09T10:58:40.059Z,1.92
2022-10-09T11:00:06.581Z,1.80
2022-10-09T11:01:45.524Z,1.83
2022-10-09T11:03:17.177Z,2.30
2022-10-09T11:04:33.603Z,1.90
2022-10-09T11:05:47.910Z,2.05
2022-10-09T11:07:01.689Z,1.67
2022-10-09T11:08:34.294Z,2.22
2022-10-09T11:09:57.327Z,2.10
2022-10-09T11:11:12.806Z,1.90
2022-10-09T11:12:49.417Z,1.80
2022-10-09T11:14:08.875Z,2.00
2022-10-09T11:15:39.110Z,2.28
2022-10-09T11:17:00.499Z,1.58
2022-10-09T11:18:17.762Z,2.20
2022-10-09T11:19:43.129Z,2.00
2022-10-09T11:21:10.051Z,1.80
2022-10-09T11:22:24.908Z,1.87
2022-10-09T11:23:30.427Z,1.80
2022-10-09T11:24:42.929Z,2.10
2022-10-09T11:26:00.205Z,2.25
2022-10-09T11:27:26.614Z,1.52
2022-10-09T11:28:46.396Z,2.15
2022-10-09T11:29:58.142Z,1.80
2022-10-09T11:31:20.365Z,1.65
2022-10-09T11:32:50.704Z,1.60
2022-10-09T11:33:59.915Z,1.87
2022-10-09T11:35:12.251Z,2.00
2022-10-09T11:36:21.377Z,1.77
2022-10-09T11:37:30.407Z,1.62
2022-10-09T11:38:52.173Z,1.75
2022-10-09T11:39:56.971Z,1.83
2022-10-09T11:41:03.857Z,1.70
2022-10-09T11:42:14.207Z,1.98
2022-10-09T11:43:25.971Z,1.83
2022-10-09T11:45:00.414Z,2.45
2022-10-09T11:46:24.727Z,1.85
2022-10-09T11:48:08.449Z,1.65
2022-10-09T11:49:22.684Z,1.83
2022-10-09T11:50:25.153Z,1.35
2022-10-09T11:51:39.243Z,1.60
2022-10-09T11:53:00.795Z,1.90
2022-10-09T11:54:05.471Z,1.90
2022-10-09T11:55:20.106Z,1.90
2022-10-09T11:56:25.796Z,1.60
2022-10-09T11:57:29.908Z,1.90
2022-10-09T11:58:40.354Z,1.83
2022-10-09T11:59:43.116Z,2.05
2022-10-09T12:00:50.517Z,2.00
2022-10-09T12:01:53.465Z,1.77
2022-10-09T12:03:01.288Z,2.00
2022-10-09T12:04:07.159Z,1.80
2022-10-09T12:05:40.533Z,1.73
2022-10-09T12:06:55.558Z,1.90
2022-10-09T12:08:14.040Z,1.80
2022-10-09T12:09:27.886Z,1.60
2022-10-09T12:10:34.891Z,2.15
2022-10-09T12:11:37.638Z,1.70
2022-10-09T12:12:40.594Z,1.52
2022-10-09T12:13:45.355Z,1.87
2022-10-09T12:14:50.838Z,1.70
2022-10-09T12:15:56.640Z,1.80
2022-10-09T12:17:00.580Z,1.52
2022-10-09T12:18:16.261Z,1.90
2022-10-09T12:19:30.590Z,1.73
2022-10-09T12:20:33.625Z,1.70
2022-10-09T12:22:05.420Z,1.80
2022-10-09T12:23:27.649Z,1.67
2022-10-09T12:24:41.859Z,1.60
2022-10-09T12:25:46.344Z,1.80
2022-10-09T12:26:51.254Z,2.25
2022-10-09T12:27:55.964Z,1.73
2022-10-09T12:29:02.147Z,1.73
2022-10-09T12:30:14.462Z,2.00
2022-10-09T12:31:40.217Z,1.87
2022-10-09T12:32:56.333Z,1.85
2022-10-09T12:34:34.477Z,1.90
2022-10-09T12:35:39.013Z,1.70
2022-10-09T12:36:41.670Z,1.58
2022-10-09T12:37:44.422Z,1.77
2022-10-09T12:38:47.090Z,1.65
2022-10-09T12:39:50.400Z,1.90
2022-10-09T12:40:55.055Z,1.67
2022-10-09T12:41:58.562Z,1.70
2022-10-09T12:43:08.127Z,1.75
2022-10-09T12:44:26.143Z,1.65
2022-10-09T12:45:31.203Z,1.67
2022-10-09T12:46:39.465Z,1.62
2022-10-09T12:47:42.406Z,1.98
2022-10-09T12:48:46.630Z,1.70
2022-10-09T12:50:13.528Z,2.53
2022-10-09T12:51:19.821Z,1.92
2022-10-09T12:52:22.378Z,1.80
2022-10-09T12:53:29.253Z,1.73
2022-10-09T12:54:32.092Z,1.80
2022-10-09T12:55:41.900Z,2.03
2022-10-09T12:56:44.956Z,1.83
2022-10-09T12:57:49.238Z,1.90
2022-10-09T12:58:52.726Z,2.00
2022-10-09T12:59:55.847Z,2.00
2022-10-09T13:01:02.244Z,1.80
2022-10-09T13:02:05.559Z,1.58
2022-10-09T13:03:33.197Z,2.25
2022-10-09T13:04:35.938Z,2.12
2022-10-09T13:05:40.323Z,1.80
2022-10-09T13:06:50.183Z,1.70
2022-10-09T13:07:55.706Z,1.90
2022-10-09T13:09:02.810Z,2.20
2022-10-09T13:10:08.987Z,2.28
2022-10-09T13:11:18.106Z,2.35
2022-10-09T13:12:24.482Z,1.87
2022-10-09T13:13:28.339Z,1.98
2022-10-09T13:14:41.666Z,2.40
2022-10-09T13:15:44.274Z,1.90
2022-10-09T13:16:47.904Z,1.80
2022-10-09T13:17:50.733Z,1.70
2022-10-09T13:19:02.153Z,1.95
2022-10-09T13:20:25.037Z,1.67
2022-10-09T13:21:34.264Z,1.60
2022-10-09T13:23:41.160Z,1.70
2022-10-09T13:24:44.267Z,1.60
2022-10-09T13:25:47.160Z,1.87
2022-10-09T13:26:49.841Z,2.35
2022-10-09T13:27:52.622Z,1.90
2022-10-09T13:28:57.640Z,2.15
2022-10-09T13:30:01.695Z,2.28
2022-10-09T13:31:08.631Z,2.08
2022-10-09T13:32:16.026Z,2.05
2022-10-09T13:33:18.835Z,2.22
2022-10-09T13:34:23.959Z,2.28
2022-10-09T13:35:26.917Z,2.15
2022-10-09T13:36:29.888Z,2.97
2022-10-09T13:37:32.598Z,2.45
2022-10-09T13:38:35.545Z,2.58
2022-10-09T13:39:38.558Z,2.20
2022-10-09T13:40:41.956Z,2.45
2022-10-09T13:41:47.578Z,2.00
2022-10-09T13:42:53.961Z,2.58
2022-10-09T13:43:56.765Z,2.72
2022-10-09T13:44:59.808Z,2.95
2022-10-09T13:46:02.787Z,2.70
2022-10-09T13:47:09.759Z,2.50
2022-10-09T13:48:12.814Z,2.50
2022-10-09T13:49:15.892Z,2.97
2022-10-09T13:50:20.061Z,2.40
2022-10-09T13:51:22.870Z,2.37
2022-10-09T13:52:25.922Z,2.50
2022-10-09T13:53:28.894Z,3.15
2022-10-09T13:54:32.747Z,2.08
2022-10-09T13:55:35.535Z,2.62
2022-10-09T13:56:38.731Z,2.67
2022-10-09T13:57:41.615Z,2.80
2022-10-09T13:58:44.481Z,2.40
2022-10-09T13:59:47.354Z,3.03
2022-10-09T14:00:50.349Z,2.50
2022-10-09T14:01:53.457Z,2.87
2022-10-09T14:02:56.382Z,4.03
2022-10-09T14:03:59.174Z,2.97
2022-10-09T14:05:02.002Z,2.70
2022-10-09T14:06:05.041Z,2.90
2022-10-09T14:07:08.243Z,2.97
2022-10-09T14:08:13.587Z,2.75
2022-10-09T14:09:16.419Z,2.87
2022-10-09T14:10:23.046Z,2.60
2022-10-09T14:11:27.755Z,2.65
2022-10-09T14:12:30.617Z,2.78
2022-10-09T14:13:34.648Z,2.90
2022-10-09T14:14:37.588Z,2.67
2022-10-09T14:15:42.940Z,3.10
2022-10-09T14:16:45.691Z,2.95
2022-10-09T14:17:48.703Z,2.72
2022-10-09T14:18:54.917Z,3.53
2022-10-09T14:19:57.968Z,2.83
2022-10-09T14:21:00.876Z,3.25
2022-10-09T14:22:03.954Z,3.15
2022-10-09T14:23:06.673Z,2.95
2022-10-09T14:24:10.464Z,2.83
2022-10-09T14:25:13.304Z,2.85
2022-10-09T14:26:16.102Z,3.25
2022-10-09T14:27:19.227Z,2.35
2022-10-09T14:28:22.329Z,3.33
2022-10-09T14:29:25.274Z,2.80
2022-10-09T14:30:28.128Z,2.83
2022-10-09T14:31:31.109Z,2.80
2022-10-09T14:32:33.909Z,2.92
2022-10-09T14:33:36.772Z,3.12
2022-10-09T14:34:39.732Z,3.00
2022-10-09T14:35:42.739Z,3.75
2022-10-09T14:36:45.685Z,3.90
2022-10-09T14:37:48.629Z,4.25
2022-10-09T14:38:52.621Z,4.80
2022-10-09T14:39:55.351Z,5.95
2022-10-09T14:40:59.535Z,4.50
2022-10-09T14:42:02.283Z,4.90
2022-10-09T14:43:05.275Z,5.60
2022-10-09T14:44:10.124Z,7.05
2022-10-09T14:45:13.711Z,6.90
2022-10-09T14:46:18.426Z,5.22
2022-10-09T14:47:21.301Z,6.85
2022-10-09T14:48:24.171Z,5.80
2022-10-09T14:49:27.033Z,5.95
2022-10-09T14:50:29.811Z,5.40
2022-10-09T14:51:36.797Z,6.22
2022-10-09T14:52:39.981Z,5.03
2022-10-09T14:53:43.361Z,4.53
2022-10-09T14:54:47.568Z,5.65